createdAt,value
2022-08-28T00:01:57.722Z,9.27
2022-08-28T00:04:24.560Z,8.00
2022-08-28T00:06:51.220Z,4.83
2022-08-28T00:09:18.171Z,13.07
2022-08-28T00:11:45.020Z,8.33
2022-08-28T00:14:11.726Z,6.20
2022-08-28T00:16:42.278Z,8.73
2022-08-28T00:19:11.004Z,10.73
2022-08-28T00:21:38.017Z,7.30
2022-08-28T00:24:05.062Z,15.13
2022-08-28T00:26:50.649Z,6.00
2022-08-28T00:29:17.469Z,6.27
2022-08-28T00:31:44.369Z,6.17
2022-08-28T00:34:11.231Z,6.13
2022-08-28T00:36:38.612Z,7.27
2022-08-28T00:39:05.967Z,15.87
2022-08-28T00:41:35.680Z,8.07
2022-08-28T00:44:09.776Z,7.43
2022-08-28T00:46:39.078Z,8.13
2022-08-28T00:49:06.483Z,4.53
2022-08-28T00:51:52.924Z,17.63
2022-08-28T00:54:19.917Z,11.23
2022-08-28T00:56:47.820Z,10.50
2022-08-28T00:59:16.216Z,10.17
2022-08-28T01:01:43.474Z,4.20
2022-08-28T01:04:13.324Z,12.83
2022-08-28T01:06:40.879Z,11.30
2022-08-28T01:09:07.536Z,13.70
2022-08-28T01:11:34.574Z,4.83
2022-08-28T01:14:02.920Z,8.17
2022-08-28T01:16:33.753Z,14.50
2022-08-28T01:19:02.382Z,12.87
2022-08-28T01:21:29.386Z,19.37
2022-08-28T01:24:05.042Z,8.07
2022-08-28T01:26:32.370Z,18.37
2022-08-28T01:28:59.918Z,10.30
2022-08-28T01:31:28.218Z,8.87
2022-08-28T01:33:55.176Z,15.40
2022-08-28T01:36:21.910Z,17.20
2022-08-28T01:38:53.104Z,12.23
2022-08-28T01:41:20.803Z,8.93
2022-08-28T01:43:47.664Z,11.67
2022-08-28T01:46:14.472Z,11.57
2022-08-28T01:48:42.702Z,11.80
2022-08-28T01:51:10.668Z,14.43
2022-08-28T01:53:37.776Z,33.97
2022-08-28T01:56:08.133Z,19.03
2022-08-28T01:58:38.273Z,14.17
2022-08-28T02:01:12.412Z,20.93
2022-08-28T02:03:39.598Z,14.60
2022-08-28T02:06:06.484Z,12.90
2022-08-28T02:08:33.152Z,10.20
2022-08-28T02:10:59.860Z,13.33
2022-08-28T02:13:26.643Z,14.33
2022-08-28T02:15:53.440Z,11.43
2022-08-28T02:18:20.453Z,12.80
2022-08-28T02:20:47.243Z,10.00
2022-08-28T02:23:14.556Z,12.97
2022-08-28T02:25:41.929Z,13.20
2022-08-28T02:28:09.250Z,12.77
2022-08-28T02:30:36.390Z,14.87
2022-08-28T02:33:03.568Z,15.40
2022-08-28T02:35:31.240Z,29.00
2022-08-28T02:37:58.309Z,14.63
2022-08-28T02:40:27.439Z,18.63
2022-08-28T02:42:54.222Z,24.13
2022-08-28T02:45:21.030Z,21.23
2022-08-28T02:47:48.348Z,22.93
2022-08-28T02:50:16.317Z,15.70
2022-08-28T02:52:43.899Z,13.63
2022-08-28T02:55:12.373Z,23.97
2022-08-28T02:57:39.817Z,18.47
2022-08-28T03:00:12.360Z,21.50
2022-08-28T03:02:39.700Z,17.03
2022-08-28T03:05:07.434Z,15.73
2022-08-28T03:07:34.247Z,11.37
2022-08-28T03:10:01.291Z,23.17
2022-08-28T03:12:28.150Z,12.20
2022-08-28T03:14:54.946Z,20.40
2022-08-28T03:17:22.202Z,24.43
2022-08-28T03:19:52.505Z,15.83
2022-08-28T03:22:39.689Z,24.33
2022-08-28T03:25:06.913Z,13.17
2022-08-28T03:27:33.743Z,25.00
2022-08-28T03:30:01.890Z,14.23
2022-08-28T03:32:29.398Z,13.50
2022-08-28T03:34:56.086Z,38.53
2022-08-28T03:37:22.868Z,24.07
2022-08-28T03:39:49.869Z,15.53
2022-08-28T03:42:17.374Z,18.63
2022-08-28T03:44:45.030Z,10.30
2022-08-28T03:47:12.798Z,23.20
2022-08-28T03:49:39.852Z,15.30
2022-08-28T03:52:06.658Z,28.53
2022-08-28T03:54:33.662Z,25.50
2022-08-28T03:57:01.339Z,24.43
2022-08-28T03:59:31.715Z,17.10
2022-08-28T04:02:00.146Z,19.63
2022-08-28T04:04:27.846Z,18.60
2022-08-28T04:06:54.717Z,18.07
2022-08-28T04:09:21.486Z,13.63
2022-08-28T04:11:48.991Z,20.53
2022-08-28T04:14:15.852Z,23.80
2022-08-28T04:16:42.593Z,26.40
2022-08-28T04:19:09.389Z,20.90
2022-08-28T04:21:36.034Z,22.93
2022-08-28T04:24:04.977Z,18.30
2022-08-28T04:26:36.699Z,22.67
2022-08-28T04:29:04.230Z,30.67
2022-08-28T04:31:32.419Z,22.07
2022-08-28T04:34:00.519Z,22.57
2022-08-28T04:36:27.231Z,21.53
2022-08-28T04:38:55.054Z,25.00
2022-08-28T04:41:22.892Z,17.37
2022-08-28T04:43:51.049Z,14.60
2022-08-28T04:46:18.243Z,22.90
2022-08-28T04:48:45.028Z,22.77
2022-08-28T04:51:13.048Z,22.80
2022-08-28T04:53:39.728Z,22.60
2022-08-28T04:56:07.399Z,30.83
2022-08-28T04:58:34.570Z,26.87
2022-08-28T05:01:12.804Z,36.13
2022-08-28T05:03:40.017Z,18.70
2022-08-28T05:06:07.079Z,20.03
2022-08-28T05:08:34.702Z,23.80
2022-08-28T05:11:12.063Z,14.83
2022-08-28T05:13:38.806Z,26.63
2022-08-28T05:16:06.419Z,29.57
2022-08-28T05:18:33.148Z,10.50
2022-08-28T05:21:00.380Z,23.57
2022-08-28T05:23:27.613Z,17.10
2022-08-28T05:25:54.883Z,18.77
2022-08-28T05:28:23.727Z,16.17
2022-08-28T05:30:51.065Z,23.70
2022-08-28T05:33:18.031Z,18.53
2022-08-28T05:35:45.623Z,16.33
2022-08-28T05:38:13.467Z,16.70
2022-08-28T05:40:42.922Z,19.07
2022-08-28T05:43:10.262Z,24.63
2022-08-28T05:45:37.267Z,18.90
2022-08-28T05:48:05.326Z,13.90
2022-08-28T05:50:32.132Z,23.07
2022-08-28T05:52:59.902Z,21.60
2022-08-28T05:55:26.679Z,23.27
2022-08-28T05:57:55.545Z,19.03
2022-08-28T06:00:22.211Z,18.80
2022-08-28T06:02:49.437Z,20.90
2022-08-28T06:05:18.598Z,18.33
2022-08-28T06:07:45.766Z,14.73
2022-08-28T06:10:12.856Z,20.07
2022-08-28T06:12:39.704Z,19.87
2022-08-28T06:15:07.527Z,29.63
2022-08-28T06:17:35.159Z,18.70
2022-08-28T06:20:02.253Z,21.70
2022-08-28T06:22:29.409Z,20.43
2022-08-28T06:24:56.263Z,17.80
2022-08-28T06:27:23.143Z,16.27
2022-08-28T06:29:51.261Z,21.23
2022-08-28T06:32:20.802Z,16.63
2022-08-28T06:34:47.902Z,18.70
2022-08-28T06:37:14.775Z,19.93
2022-08-28T06:39:41.600Z,24.73
2022-08-28T06:42:09.066Z,20.93
2022-08-28T06:44:39.022Z,22.80
2022-08-28T06:47:06.256Z,13.97
2022-08-28T06:49:33.487Z,14.90
2022-08-28T06:52:00.164Z,19.67
2022-08-28T06:54:27.515Z,26.70
2022-08-28T06:56:57.729Z,15.00
2022-08-28T06:59:24.646Z,17.63
2022-08-28T07:01:55.421Z,17.73
2022-08-28T07:04:22.675Z,24.47
2022-08-28T07:06:54.082Z,18.40
2022-08-28T07:09:22.372Z,19.80
2022-08-28T07:11:49.097Z,13.87
2022-08-28T07:14:17.144Z,15.07
2022-08-28T07:16:44.639Z,16.63
2022-08-28T07:19:13.009Z,17.23
2022-08-28T07:21:42.289Z,12.63
2022-08-28T07:24:10.625Z,6.43
2022-08-28T07:26:38.743Z,17.80
2022-08-28T07:29:10.121Z,13.60
2022-08-28T07:31:51.793Z,13.97
2022-08-28T07:34:20.533Z,13.50
2022-08-28T07:36:48.519Z,13.27
2022-08-28T07:39:15.958Z,18.60
2022-08-28T07:41:48.198Z,19.90
2022-08-28T07:44:40.218Z,26.33
2022-08-28T07:47:08.795Z,16.30
2022-08-28T07:49:37.249Z,16.40
2022-08-28T07:52:04.900Z,14.90
2022-08-28T07:54:32.149Z,10.30
2022-08-28T07:57:03.314Z,12.17
2022-08-28T07:59:36.949Z,7.80
2022-08-28T08:02:04.796Z,13.07
2022-08-28T08:04:32.584Z,24.00
2022-08-28T08:07:01.900Z,16.43
2022-08-28T08:09:35.933Z,16.03
2022-08-28T08:12:02.918Z,16.07
2022-08-28T08:14:30.882Z,14.60
2022-08-28T08:17:01.578Z,7.50
2022-08-28T08:19:28.773Z,12.90
2022-08-28T08:21:58.186Z,11.30
2022-08-28T08:24:30.451Z,15.83
2022-08-28T08:27:00.761Z,10.40
2022-08-28T08:29:29.517Z,15.80
2022-08-28T08:31:57.965Z,8.90
2022-08-28T08:34:25.722Z,9.93
2022-08-28T08:36:52.655Z,14.93
2022-08-28T08:39:19.830Z,18.77
2022-08-28T08:41:48.443Z,17.60
2022-08-28T08:44:34.119Z,15.53
2022-08-28T08:47:20.111Z,18.60
2022-08-28T08:49:57.943Z,11.90
2022-08-28T08:52:24.751Z,10.70
2022-08-28T08:55:07.401Z,8.70
2022-08-28T08:57:36.071Z,11.20
2022-08-28T09:00:11.222Z,24.73
2022-08-28T09:03:08.586Z,22.40
2022-08-28T09:05:46.280Z,16.60
2022-08-28T09:08:25.500Z,14.80
2022-08-28T09:11:00.874Z,15.00
2022-08-28T09:13:34.245Z,13.23
2022-08-28T09:16:05.353Z,12.33
2022-08-28T09:18:34.276Z,19.50
2022-08-28T09:21:01.341Z,10.83
2022-08-28T09:23:30.361Z,8.70
2022-08-28T09:26:05.359Z,14.73
2022-08-28T09:28:39.163Z,7.73
2022-08-28T09:31:10.863Z,15.33
2022-08-28T09:33:47.178Z,5.87
2022-08-28T09:36:23.370Z,9.10
2022-08-28T09:39:08.017Z,8.20
2022-08-28T09:41:57.898Z,7.83
2022-08-28T09:44:25.556Z,13.87
2022-08-28T09:46:53.125Z,6.80
2022-08-28T09:49:27.463Z,8.00
2022-08-28T09:51:56.269Z,6.37
2022-08-28T09:54:45.731Z,17.30
2022-08-28T09:57:12.711Z,10.43
2022-08-28T09:59:39.616Z,10.40
2022-08-28T10:02:13.304Z,10.23
2022-08-28T10:04:59.086Z,13.93
2022-08-28T10:07:28.849Z,8.93
2022-08-28T10:09:58.782Z,10.80
2022-08-28T10:12:35.429Z,12.20
2022-08-28T10:15:20.955Z,7.93
2022-08-28T10:17:54.102Z,14.43
2022-08-28T10:20:39.771Z,10.13
2022-08-28T10:23:07.674Z,8.20
2022-08-28T10:25:40.450Z,14.03
2022-08-28T10:28:14.488Z,6.43
2022-08-28T10:30:54.234Z,16.87
2022-08-28T10:33:43.743Z,6.60
2022-08-28T10:36:33.990Z,5.33
2022-08-28T10:39:34.305Z,5.70
2022-08-28T10:42:09.513Z,10.17
2022-08-28T10:44:42.417Z,13.70
2022-08-28T10:47:10.316Z,11.70
2022-08-28T10:49:40.127Z,8.57
2022-08-28T10:52:12.316Z,12.63
2022-08-28T10:54:46.304Z,9.90
2022-08-28T10:57:36.113Z,10.67
2022-08-28T11:00:13.707Z,6.23
2022-08-28T11:03:00.840Z,6.10
2022-08-28T11:05:33.864Z,12.27
2022-08-28T11:08:04.149Z,11.07
2022-08-28T11:10:36.857Z,9.40
2022-08-28T11:13:05.385Z,9.87
2022-08-28T11:15:37.006Z,6.57
2022-08-28T11:18:16.884Z,7.93
2022-08-28T11:20:55.057Z,4.77
2022-08-28T11:23:24.341Z,13.03
2022-08-28T11:25:59.046Z,12.90
2022-08-28T11:28:25.887Z,7.77
2022-08-28T11:30:58.698Z,5.33
2022-08-28T11:33:44.588Z,9.70
2022-08-28T11:36:21.342Z,10.57
2022-08-28T11:38:54.374Z,4.43
2022-08-28T11:41:27.518Z,5.90
2022-08-28T11:44:09.521Z,7.37
2022-08-28T11:46:49.553Z,5.33
2022-08-28T11:49:32.638Z,5.43
2022-08-28T11:52:07.789Z,6.20
2022-08-28T11:54:51.374Z,3.67
2022-08-28T12:00:46.427Z,4.70
2022-08-28T12:03:23.272Z,9.87
2022-08-28T12:05:52.546Z,5.60
2022-08-28T12:08:38.653Z,5.10
2022-08-28T12:11:05.738Z,7.57
2022-08-28T12:13:44.856Z,5.57
2022-08-28T12:16:12.795Z,8.20
2022-08-28T12:18:43.583Z,4.80
2022-08-28T12:21:16.448Z,1.70
2022-08-28T12:23:45.621Z,8.40
2022-08-28T12:26:19.146Z,8.50
2022-08-28T12:28:50.016Z,3.67
2022-08-28T12:31:19.942Z,6.03
2022-08-28T12:33:51.779Z,8.33
2022-08-28T12:36:26.587Z,9.40
2022-08-28T12:38:54.791Z,3.57
2022-08-28T12:41:22.865Z,11.10
2022-08-28T12:43:52.000Z,3.87
2022-08-28T12:46:23.945Z,6.00
2022-08-28T12:48:52.985Z,11.67
2022-08-28T12:51:24.684Z,9.10
2022-08-28T12:53:53.021Z,5.00
2022-08-28T12:56:24.613Z,2.50
2022-08-28T12:58:53.316Z,5.07
2022-08-28T13:01:23.400Z,3.50
2022-08-28T13:03:52.508Z,3.23
2022-08-28T13:06:45.701Z,4.10
2022-08-28T13:09:21.310Z,3.93
2022-08-28T13:11:49.612Z,6.30
2022-08-28T13:14:36.010Z,11.47
2022-08-28T13:17:03.239Z,3.27
2022-08-28T13:19:34.447Z,3.37
2022-08-28T13:22:03.176Z,8.23
2022-08-28T13:24:33.092Z,3.73
2022-08-28T13:27:00.957Z,9.57
2022-08-28T13:29:30.804Z,1.87
2022-08-28T13:32:13.041Z,7.23
2022-08-28T13:34:48.030Z,5.57
2022-08-28T13:37:48.760Z,2.63
2022-08-28T13:40:45.968Z,2.43
2022-08-28T13:43:07.765Z,3.93
2022-08-28T13:45:44.017Z,6.27
2022-08-28T13:48:20.187Z,4.10
2022-08-28T13:50:52.971Z,5.67
2022-08-28T13:53:22.580Z,5.03
2022-08-28T13:55:50.992Z,8.40
2022-08-28T13:58:18.351Z,6.23
2022-08-28T14:00:47.916Z,5.70
2022-08-28T14:03:36.127Z,10.90
2022-08-28T14:06:07.987Z,4.30
2022-08-28T14:08:46.410Z,5.27
2022-08-28T14:11:17.405Z,2.80
2022-08-28T14:13:47.170Z,12.20
2022-08-28T14:16:23.114Z,3.93
2022-08-28T14:18:52.007Z,8.30
2022-08-28T14:21:43.825Z,3.00
2022-08-28T14:24:11.113Z,3.63
2022-08-28T14:26:41.618Z,7.60
2022-08-28T14:29:14.810Z,5.27
2022-08-28T14:31:50.539Z,4.33
2022-08-28T14:34:22.446Z,2.20
2022-08-28T14:36:51.091Z,3.93
2022-08-28T14:39:18.143Z,3.00
2022-08-28T14:41:48.036Z,6.70
2022-08-28T14:44:15.940Z,7.20
2022-08-28T14:46:43.896Z,3.50
2022-08-28T14:49:12.760Z,8.40
2022-08-28T14:51:41.558Z,6.13
2022-08-28T14:54:09.754Z,4.50
2022-08-28T14:56:36.900Z,5.07
2022-08-28T14:59:05.011Z,3.93
2022-08-28T15:01:40.597Z,4.33
2022-08-28T15:07:11.213Z,4.03
2022-08-28T15:10:11.121Z,4.20
2022-08-28T15:12:39.202Z,4.83
2022-08-28T15:15:09.744Z,6.83
2022-08-28T15:17:38.194Z,6.47
2022-08-28T15:20:05.642Z,2.70
2022-08-28T15:22:36.571Z,2.70
2022-08-28T15:25:08.675Z,1.73
2022-08-28T15:27:38.387Z,6.33
2022-08-28T15:30:05.689Z,9.13
2022-08-28T15:32:32.747Z,2.03
2022-08-28T15:35:00.346Z,4.23
2022-08-28T15:37:35.026Z,4.93
2022-08-28T15:40:22.987Z,4.37
2022-08-28T15:42:55.210Z,2.67
2022-08-28T15:45:23.600Z,3.73
2022-08-28T15:47:51.025Z,1.53
2022-08-28T15:50:19.898Z,3.00
2022-08-28T15:52:53.449Z,9.93
2022-08-28T15:55:21.780Z,6.00
2022-08-28T15:57:59.779Z,4.90
2022-08-28T16:00:27.746Z,2.20
2022-08-28T16:03:00.528Z,2.80
2022-08-28T16:05:44.078Z,2.97
2022-08-28T16:08:23.216Z,5.60
2022-08-28T16:10:53.540Z,2.40
2022-08-28T16:13:20.308Z,2.47
2022-08-28T16:15:50.547Z,1.73
2022-08-28T16:18:17.485Z,3.90
2022-08-28T16:20:45.333Z,4.40
2022-08-28T16:23:13.820Z,5.37
2022-08-28T16:29:00.765Z,2.20
2022-08-28T16:32:11.707Z,7.07
2022-08-28T16:34:39.225Z,5.23
2022-08-28T16:37:08.998Z,3.37
2022-08-28T16:39:40.014Z,4.80
2022-08-28T16:42:08.885Z,2.30
2022-08-28T16:44:43.189Z,2.20
2022-08-28T16:49:58.211Z,4.30
2022-08-28T16:52:33.998Z,2.83
2022-08-28T16:55:08.527Z,7.20
2022-08-28T16:57:38.446Z,4.93
2022-08-28T17:00:08.069Z,4.23
2022-08-28T17:02:38.584Z,3.30
2022-08-28T17:05:10.365Z,12.70
2022-08-28T17:07:37.616Z,1.20
2022-08-28T17:10:22.611Z,3.03
2022-08-28T17:12:51.564Z,2.60
2022-08-28T17:15:19.026Z,3.10
2022-08-28T17:17:49.406Z,1.57
2022-08-28T17:20:38.712Z,6.03
2022-08-28T17:23:07.885Z,5.30
2022-08-28T17:28:29.130Z,2.70
2022-08-28T17:30:59.901Z,1.70
2022-08-28T17:33:31.837Z,7.27
2022-08-28T17:36:06.262Z,4.13
2022-08-28T17:38:45.225Z,5.37
2022-08-28T17:41:15.680Z,1.70
2022-08-28T17:43:44.149Z,3.60
2022-08-28T17:46:13.563Z,5.40
2022-08-28T17:48:41.941Z,7.87
2022-08-28T17:51:23.406Z,2.70
2022-08-28T17:54:14.834Z,5.10
2022-08-28T17:56:43.619Z,5.13
2022-08-28T17:59:13.030Z,3.50
2022-08-28T18:01:42.907Z,3.50
2022-08-28T18:04:11.029Z,2.87
2022-08-28T18:06:38.368Z,5.87
2022-08-28T18:09:10.463Z,9.67
2022-08-28T18:11:38.445Z,11.53
2022-08-28T18:14:06.732Z,2.70
2022-08-28T18:16:35.374Z,4.53
2022-08-28T18:19:06.554Z,4.90
2022-08-28T18:21:37.868Z,7.00
2022-08-28T18:24:05.705Z,2.80
2022-08-28T18:26:34.860Z,9.03
2022-08-28T18:29:03.921Z,10.13
2022-08-28T18:34:43.958Z,4.53
2022-08-28T18:40:01.907Z,3.67
2022-08-28T18:42:29.275Z,8.50
2022-08-28T18:44:57.381Z,10.63
2022-08-28T18:47:29.835Z,4.63
2022-08-28T18:50:01.082Z,6.60
2022-08-28T18:52:32.850Z,2.43
2022-08-28T18:55:00.954Z,3.43
2022-08-28T18:57:33.674Z,8.07
2022-08-28T19:00:01.608Z,4.40
2022-08-28T19:02:37.063Z,8.40
2022-08-28T19:05:09.620Z,27.27
2022-08-28T19:07:36.857Z,3.63
2022-08-28T19:10:05.426Z,5.00
2022-08-28T19:12:36.008Z,6.80
2022-08-28T19:15:08.422Z,3.23
2022-08-28T19:17:38.208Z,14.47
2022-08-28T19:20:19.811Z,5.33
2022-08-28T19:22:49.296Z,9.80
2022-08-28T19:25:28.945Z,8.37
2022-08-28T19:27:59.378Z,2.80
2022-08-28T19:30:33.608Z,7.40
2022-08-28T19:33:01.999Z,3.80
2022-08-28T19:35:30.170Z,2.93
2022-08-28T19:37:59.694Z,7.50
2022-08-28T19:40:28.843Z,7.00
2022-08-28T19:43:00.635Z,9.90
2022-08-28T19:45:28.244Z,8.43
2022-08-28T19:48:00.155Z,11.87
2022-08-28T19:53:25.887Z,10.73
2022-08-28T19:55:54.498Z,8.07
2022-08-28T19:58:22.244Z,3.70
2022-08-28T20:03:37.134Z,7.53
2022-08-28T20:06:39.632Z,7.80
2022-08-28T20:09:13.044Z,7.37
2022-08-28T20:11:43.236Z,6.33
2022-08-28T20:14:14.990Z,9.40
2022-08-28T20:19:26.623Z,10.47
2022-08-28T20:21:59.941Z,4.83
2022-08-28T20:24:30.185Z,10.77
2022-08-28T20:29:40.233Z,9.33
2022-08-28T20:32:09.201Z,6.93
2022-08-28T20:34:43.867Z,6.97
2022-08-28T20:37:11.516Z,9.03
2022-08-28T20:39:41.822Z,5.27
2022-08-28T20:42:09.915Z,3.60
2022-08-28T20:44:36.957Z,6.83
2022-08-28T20:47:04.379Z,12.33
2022-08-28T20:49:31.427Z,6.17
2022-08-28T20:52:00.898Z,4.00
2022-08-28T20:54:30.082Z,3.73
2022-08-28T20:56:58.981Z,4.30
2022-08-28T20:59:28.749Z,8.43
2022-08-28T21:02:02.911Z,9.10
2022-08-28T21:04:30.456Z,9.33
2022-08-28T21:06:57.905Z,3.87
2022-08-28T21:09:35.858Z,5.93
2022-08-28T21:12:12.406Z,8.13
2022-08-28T21:14:39.439Z,9.00
2022-08-28T21:17:07.069Z,11.07
2022-08-28T21:19:36.219Z,4.37
2022-08-28T21:22:06.616Z,4.50
2022-08-28T21:24:34.191Z,5.20
2022-08-28T21:27:01.221Z,4.57
2022-08-28T21:29:28.677Z,3.40
2022-08-28T21:31:55.532Z,7.67
2022-08-28T21:34:22.427Z,11.83
2022-08-28T21:36:50.625Z,7.37
2022-08-28T21:39:20.522Z,9.90
2022-08-28T21:42:00.820Z,10.87
2022-08-28T21:44:27.726Z,12.90
2022-08-28T21:46:54.493Z,5.63
2022-08-28T21:49:22.806Z,4.60
2022-08-28T21:51:50.354Z,9.23
2022-08-28T21:54:18.741Z,6.07
2022-08-28T21:56:46.344Z,9.63
2022-08-28T21:59:15.203Z,12.43
2022-08-28T22:01:42.227Z,7.23
2022-08-28T22:04:09.561Z,4.33
2022-08-28T22:06:43.128Z,7.63
2022-08-28T22:09:10.125Z,6.33
2022-08-28T22:11:37.241Z,7.50
2022-08-28T22:14:04.652Z,7.30
2022-08-28T22:16:32.679Z,13.40
2022-08-28T22:18:59.432Z,8.53
2022-08-28T22:21:46.257Z,13.60
2022-08-28T22:24:13.399Z,8.70
2022-08-28T22:26:41.569Z,9.43
2022-08-28T22:29:38.620Z,7.87
2022-08-28T22:32:06.913Z,9.33
2022-08-28T22:34:37.843Z,6.93
2022-08-28T22:37:04.869Z,7.57
2022-08-28T22:39:31.805Z,10.30
2022-08-28T22:41:58.582Z,4.53
2022-08-28T22:44:25.335Z,6.70
2022-08-28T22:46:52.020Z,11.67
2022-08-28T22:49:19.141Z,10.27
2022-08-28T22:51:45.868Z,8.33
2022-08-28T22:54:12.567Z,9.03
2022-08-28T22:56:39.401Z,5.17
2022-08-28T22:59:06.190Z,6.33
2022-08-28T23:01:33.603Z,5.10
2022-08-28T23:04:01.519Z,6.30
2022-08-28T23:06:31.913Z,6.00
2022-08-28T23:08:58.679Z,6.77
2022-08-28T23:11:25.393Z,5.47
2022-08-28T23:13:52.106Z,7.57
2022-08-28T23:16:23.886Z,12.80
2022-08-28T23:19:07.380Z,8.60
2022-08-28T23:21:36.575Z,14.73
2022-08-28T23:24:07.796Z,4.60
2022-08-28T23:26:34.555Z,6.73
2022-08-28T23:29:01.274Z,12.53
2022-08-28T23:31:28.714Z,5.97
2022-08-28T23:33:55.473Z,10.80
2022-08-28T23:36:22.480Z,5.60
2022-08-28T23:38:49.973Z,12.00
2022-08-28T23:41:19.000Z,7.80
2022-08-28T23:43:45.938Z,5.40
2022-08-28T23:46:18.960Z,35.33
2022-08-28T23:48:45.870Z,24.47
2022-08-28T23:51:17.011Z,12.17
2022-08-28T23:53:44.549Z,6.20
2022-08-28T23:56:11.394Z,6.07
2022-08-28T23:58:40.021Z,6.80
